createdAt,value
2018-12-31T00:01:29.809Z,2.55
2018-12-31T00:04:19.673Z,1.87
2018-12-31T00:07:09.358Z,1.90
2018-12-31T00:09:51.974Z,2.05
2018-12-31T00:12:41.678Z,1.95
2018-12-31T00:15:23.927Z,1.97
2018-12-31T00:18:13.566Z,1.83
2018-12-31T00:20:56.073Z,1.70
2018-12-31T00:23:46.179Z,2.35
2018-12-31T00:26:29.410Z,2.03
2018-12-31T00:29:19.159Z,1.50
2018-12-31T00:32:02.804Z,1.87
2018-12-31T00:34:52.639Z,2.20
2018-12-31T00:40:56.977Z,1.80
2018-12-31T00:43:39.544Z,1.75
2018-12-31T00:46:29.411Z,1.80
2018-12-31T00:49:19.193Z,1.60
2018-12-31T00:52:01.979Z,1.90
2018-12-31T00:54:51.650Z,2.58
2018-12-31T00:57:34.423Z,2.25
2018-12-31T01:00:24.098Z,2.00
2018-12-31T01:03:06.501Z,1.70
2018-12-31T01:05:56.206Z,2.20
2018-12-31T01:08:46.044Z,2.12
2018-12-31T01:11:28.745Z,2.77
2018-12-31T01:14:21.214Z,2.20
2018-12-31T01:17:03.105Z,2.67
2018-12-31T01:19:52.912Z,2.45
2018-12-31T01:22:35.228Z,2.80
2018-12-31T01:25:17.121Z,2.73
2018-12-31T01:31:08.207Z,2.85
2018-12-31T01:33:57.948Z,2.95
2018-12-31T01:36:39.986Z,2.30
2018-12-31T01:39:29.738Z,2.63
2018-12-31T01:42:12.070Z,2.50
2018-12-31T01:45:01.822Z,2.60
2018-12-31T01:47:44.357Z,2.63
2018-12-31T01:50:34.261Z,2.80
2018-12-31T01:53:23.854Z,2.62
2018-12-31T01:56:05.895Z,2.80
2018-12-31T01:58:55.782Z,3.00
2018-12-31T02:01:45.612Z,2.52
2018-12-31T02:04:35.301Z,2.70
2018-12-31T02:07:18.054Z,2.83
2018-12-31T02:10:08.042Z,2.90
2018-12-31T02:12:50.129Z,2.67
2018-12-31T02:15:39.826Z,2.70
2018-12-31T02:18:21.785Z,3.37
2018-12-31T02:21:04.473Z,2.72
2018-12-31T02:23:54.453Z,3.00
2018-12-31T02:29:45.596Z,3.67
2018-12-31T02:32:35.169Z,3.25
2018-12-31T02:35:19.761Z,3.47
2018-12-31T02:38:09.402Z,3.50
2018-12-31T02:40:51.413Z,3.22
2018-12-31T02:43:41.375Z,3.47
2018-12-31T02:46:23.780Z,3.90
2018-12-31T02:49:13.489Z,3.62
2018-12-31T02:52:03.471Z,3.60
2018-12-31T02:58:08.312Z,3.10
2018-12-31T03:01:18.544Z,3.87
2018-12-31T03:04:00.634Z,4.00
2018-12-31T03:06:50.467Z,3.95
2018-12-31T03:09:40.147Z,4.08
2018-12-31T03:12:22.836Z,4.00
2018-12-31T03:15:12.587Z,4.45
2018-12-31T03:17:55.030Z,4.03
2018-12-31T03:20:37.392Z,4.20
2018-12-31T03:23:27.072Z,3.60
2018-12-31T03:26:16.643Z,3.95
2018-12-31T03:28:58.934Z,4.13
2018-12-31T03:31:48.790Z,3.92
2018-12-31T03:34:38.586Z,6.45
2018-12-31T03:37:21.587Z,5.05
2018-12-31T03:40:11.318Z,5.10
2018-12-31T03:42:53.717Z,4.87
2018-12-31T03:45:45.149Z,4.13
2018-12-31T03:48:27.731Z,4.47
2018-12-31T03:51:17.723Z,5.05
2018-12-31T03:54:00.304Z,4.58
2018-12-31T03:56:50.506Z,4.25
2018-12-31T03:59:33.784Z,4.55
2018-12-31T04:02:23.384Z,4.97
2018-12-31T04:05:06.428Z,4.67
2018-12-31T04:07:56.070Z,4.67
2018-12-31T04:10:38.844Z,4.78
2018-12-31T04:13:28.747Z,5.00
2018-12-31T04:16:11.176Z,5.42
2018-12-31T04:19:00.915Z,4.87
2018-12-31T04:21:43.050Z,4.97
2018-12-31T04:24:32.669Z,5.33
2018-12-31T04:27:14.797Z,5.60
2018-12-31T04:30:05.089Z,5.33
2018-12-31T04:32:47.796Z,5.20
2018-12-31T04:35:37.689Z,6.15
2018-12-31T04:38:19.752Z,5.28
2018-12-31T04:41:09.567Z,5.03
2018-12-31T04:43:52.202Z,4.97
2018-12-31T04:46:41.919Z,4.95
2018-12-31T04:49:24.743Z,5.30
2018-12-31T04:55:11.103Z,5.20
2018-12-31T04:58:00.843Z,6.03
2018-12-31T05:00:43.469Z,5.45
2018-12-31T05:03:33.337Z,5.27
2018-12-31T05:06:15.157Z,5.50
2018-12-31T05:09:05.283Z,5.33
2018-12-31T05:11:49.903Z,4.87
2018-12-31T05:14:39.439Z,5.20
2018-12-31T05:17:21.284Z,4.83
2018-12-31T05:20:11.052Z,4.60
2018-12-31T05:22:53.349Z,5.35
2018-12-31T05:25:43.103Z,5.00
2018-12-31T05:28:25.138Z,5.13
2018-12-31T05:31:15.049Z,4.78
2018-12-31T05:33:57.679Z,4.47
2018-12-31T05:36:47.499Z,5.12
2018-12-31T05:39:29.832Z,4.83
2018-12-31T05:42:19.799Z,5.47
2018-12-31T05:45:01.974Z,4.97
2018-12-31T05:47:51.657Z,5.28
2018-12-31T05:50:33.945Z,5.57
2018-12-31T05:53:23.729Z,5.40
2018-12-31T05:56:13.743Z,5.15
2018-12-31T05:58:55.997Z,5.43
2018-12-31T06:01:45.605Z,5.08
2018-12-31T06:04:28.072Z,5.33
2018-12-31T06:07:18.031Z,4.50
2018-12-31T06:10:00.632Z,5.37
2018-12-31T06:12:50.237Z,4.58
2018-12-31T06:15:32.777Z,5.00
2018-12-31T06:18:22.613Z,4.83
2018-12-31T06:21:04.628Z,5.43
2018-12-31T06:23:54.385Z,4.83
2018-12-31T06:26:36.819Z,5.27
2018-12-31T06:29:26.507Z,4.78
2018-12-31T06:32:08.450Z,4.85
2018-12-31T06:34:58.167Z,5.30
2018-12-31T06:37:40.305Z,5.25
2018-12-31T06:40:29.932Z,5.10
2018-12-31T06:43:12.044Z,5.78
2018-12-31T06:46:01.708Z,6.03
2018-12-31T06:48:43.632Z,5.80
2018-12-31T06:51:33.466Z,6.20
2018-12-31T06:54:15.912Z,5.75
2018-12-31T06:57:05.591Z,5.70
2018-12-31T06:59:55.419Z,5.37
2018-12-31T07:02:44.977Z,5.72
2018-12-31T07:05:27.274Z,4.83
2018-12-31T07:11:32.399Z,6.30
2018-12-31T07:14:22.153Z,6.85
2018-12-31T07:17:06.575Z,5.70
2018-12-31T07:22:58.978Z,6.35
2018-12-31T07:25:48.508Z,6.50
2018-12-31T07:28:30.344Z,5.90
2018-12-31T07:31:19.891Z,6.12
2018-12-31T07:34:02.279Z,6.90
2018-12-31T07:36:44.659Z,6.87
2018-12-31T07:39:34.271Z,6.75
2018-12-31T07:42:23.817Z,7.50
2018-12-31T07:45:06.315Z,7.15
2018-12-31T07:47:55.908Z,6.75
2018-12-31T07:50:38.442Z,6.50
2018-12-31T07:53:28.008Z,7.10
2018-12-31T07:56:10.477Z,6.57
2018-12-31T07:59:00.019Z,6.58
2018-12-31T08:01:42.519Z,6.90
2018-12-31T08:04:32.050Z,6.05
2018-12-31T08:07:21.754Z,6.85
2018-12-31T08:10:04.489Z,6.10
2018-12-31T08:12:54.044Z,6.45
2018-12-31T08:15:36.462Z,6.30
2018-12-31T08:18:26.023Z,6.60
2018-12-31T08:21:07.871Z,6.12
2018-12-31T08:23:57.420Z,6.58
2018-12-31T08:26:39.994Z,6.65
2018-12-31T08:29:29.558Z,6.20
2018-12-31T08:32:12.044Z,6.72
2018-12-31T08:35:01.799Z,6.17
2018-12-31T08:37:44.091Z,6.40
2018-12-31T08:40:33.644Z,6.22
2018-12-31T08:43:16.108Z,5.80
2018-12-31T08:46:05.658Z,6.90
2018-12-31T08:48:48.065Z,6.73
2018-12-31T08:51:37.593Z,6.50
2018-12-31T08:54:20.081Z,6.50
2018-12-31T08:57:09.739Z,6.78
2018-12-31T08:59:59.333Z,7.07
2018-12-31T09:02:42.368Z,6.60
2018-12-31T09:05:32.055Z,7.17
2018-12-31T09:08:14.701Z,6.97
2018-12-31T09:11:04.294Z,7.05
2018-12-31T09:13:49.026Z,7.25
2018-12-31T09:16:38.620Z,7.90
2018-12-31T09:19:20.689Z,7.92
2018-12-31T09:22:10.319Z,7.35
2018-12-31T09:24:59.868Z,7.60
2018-12-31T09:27:41.680Z,7.67
2018-12-31T09:30:31.374Z,6.80
2018-12-31T09:33:13.999Z,7.67
2018-12-31T09:36:03.556Z,7.17
2018-12-31T09:38:45.919Z,8.00
2018-12-31T09:41:35.473Z,6.90
2018-12-31T09:44:18.330Z,8.10
2018-12-31T09:50:08.853Z,7.20
2018-12-31T09:53:10.332Z,7.58
2018-12-31T09:55:52.949Z,7.87
2018-12-31T09:58:42.506Z,7.45
2018-12-31T10:01:27.623Z,8.55
2018-12-31T10:04:17.133Z,7.67
2018-12-31T10:06:59.861Z,7.67
2018-12-31T10:09:49.557Z,7.40
2018-12-31T10:12:32.006Z,7.72
2018-12-31T10:15:14.368Z,7.08
2018-12-31T10:18:03.949Z,7.30
2018-12-31T10:20:46.653Z,8.90
2018-12-31T10:23:36.249Z,8.30
2018-12-31T10:26:18.767Z,8.15
2018-12-31T10:29:10.921Z,8.05
2018-12-31T10:31:53.182Z,7.57
2018-12-31T10:34:42.699Z,7.37
2018-12-31T10:37:32.432Z,7.40
2018-12-31T10:43:37.377Z,7.78
2018-12-31T10:46:26.997Z,7.10
2018-12-31T10:49:09.372Z,7.47
2018-12-31T10:52:09.231Z,7.22
2018-12-31T10:54:51.524Z,8.85
2018-12-31T10:57:41.076Z,7.97
2018-12-31T11:00:22.923Z,8.23
2018-12-31T11:03:12.524Z,7.87
2018-12-31T11:05:54.817Z,8.05
2018-12-31T11:11:45.724Z,8.13
2018-12-31T11:14:35.472Z,8.30
2018-12-31T11:17:17.953Z,7.33
2018-12-31T11:20:07.550Z,8.05
2018-12-31T11:22:49.667Z,8.40
2018-12-31T11:25:39.287Z,8.88
2018-12-31T11:28:21.736Z,9.80
2018-12-31T11:31:11.297Z,8.58
2018-12-31T11:33:53.749Z,8.75
2018-12-31T11:37:03.885Z,9.85
2018-12-31T11:39:46.125Z,8.83
2018-12-31T11:42:35.741Z,9.33
2018-12-31T11:45:26.352Z,10.06
2018-12-31T11:48:08.976Z,8.78
2018-12-31T11:54:13.312Z,9.23
2018-12-31T11:57:02.934Z,10.85
2018-12-31T11:59:45.999Z,9.60
2018-12-31T12:02:35.632Z,9.98
2018-12-31T12:05:17.584Z,9.70
2018-12-31T12:08:19.465Z,11.25
2018-12-31T12:10:51.712Z,11.43
2018-12-31T12:13:41.313Z,11.10
2018-12-31T12:16:23.607Z,11.05
2018-12-31T12:19:13.424Z,10.40
2018-12-31T12:21:56.106Z,10.82
2018-12-31T12:24:46.569Z,11.30
2018-12-31T12:27:28.640Z,11.22
2018-12-31T12:30:18.396Z,10.45
2018-12-31T12:33:08.028Z,10.90
2018-12-31T12:38:54.138Z,9.75
2018-12-31T12:42:02.735Z,9.18
2018-12-31T12:44:45.237Z,9.55
2018-12-31T12:47:34.820Z,9.23
2018-12-31T12:50:17.155Z,10.43
2018-12-31T12:52:59.774Z,10.23
2018-12-31T12:55:51.482Z,10.05
2018-12-31T12:58:33.445Z,8.90
2018-12-31T13:01:23.146Z,10.43
2018-12-31T13:04:05.879Z,8.55
2018-12-31T13:06:55.389Z,7.92
2018-12-31T13:09:37.733Z,8.45
2018-12-31T13:12:27.674Z,8.20
2018-12-31T13:15:10.180Z,8.50
2018-12-31T13:17:59.763Z,8.13
2018-12-31T13:20:41.602Z,8.15
2018-12-31T13:23:31.290Z,8.65
2018-12-31T13:26:13.294Z,9.28
2018-12-31T13:29:04.353Z,9.05
2018-12-31T13:31:47.117Z,9.00
2018-12-31T13:37:37.748Z,9.20
2018-12-31T13:40:27.389Z,8.40
2018-12-31T13:43:09.934Z,8.53
2018-12-31T13:45:59.746Z,8.93
2018-12-31T13:48:41.619Z,9.00
2018-12-31T13:51:31.144Z,9.38
2018-12-31T13:54:14.016Z,9.83
2018-12-31T13:57:06.547Z,9.85
2018-12-31T13:59:49.155Z,8.65
2018-12-31T14:02:38.845Z,8.77
2018-12-31T14:05:22.765Z,8.45
2018-12-31T14:08:12.303Z,9.05
2018-12-31T14:10:54.796Z,8.50
2018-12-31T14:13:44.532Z,9.85
2018-12-31T14:16:27.272Z,10.60
2018-12-31T14:19:16.829Z,10.38
2018-12-31T14:22:01.133Z,10.20
2018-12-31T14:24:50.669Z,11.40
2018-12-31T14:27:40.331Z,11.20
2018-12-31T14:30:22.906Z,14.15
2018-12-31T14:33:12.565Z,13.35
2018-12-31T14:35:54.956Z,18.05
2018-12-31T14:38:44.517Z,14.63
2018-12-31T14:41:28.104Z,11.43
2018-12-31T14:44:17.695Z,11.05
2018-12-31T14:46:59.488Z,10.15
2018-12-31T14:49:49.112Z,9.95
2018-12-31T14:52:31.281Z,9.35
2018-12-31T14:55:20.806Z,9.90
2018-12-31T14:58:03.326Z,9.93
2018-12-31T15:00:53.072Z,9.83
2018-12-31T15:03:34.943Z,10.72
2018-12-31T15:06:15.497Z,10.60
2018-12-31T15:08:57.437Z,10.68
2018-12-31T15:11:47.275Z,10.23
2018-12-31T15:14:33.808Z,9.63
2018-12-31T15:17:23.931Z,9.15
2018-12-31T15:20:07.788Z,9.43
2018-12-31T15:22:57.932Z,18.17
2018-12-31T15:25:40.548Z,25.27
2018-12-31T15:28:30.721Z,17.05
2018-12-31T15:31:39.529Z,11.80
2018-12-31T15:34:22.318Z,10.08
2018-12-31T15:37:12.000Z,11.15
2018-12-31T15:39:57.173Z,12.37
2018-12-31T15:42:47.078Z,11.30
2018-12-31T15:45:39.406Z,10.53
2018-12-31T15:48:29.482Z,9.88
2018-12-31T15:51:11.339Z,10.15
2018-12-31T15:54:01.119Z,9.53
2018-12-31T15:56:45.176Z,9.38
2018-12-31T15:59:34.844Z,8.95
2018-12-31T16:02:29.596Z,9.78
2018-12-31T16:05:19.412Z,9.53
2018-12-31T16:08:01.819Z,10.03
2018-12-31T16:10:51.691Z,9.93
2018-12-31T16:13:34.305Z,9.15
2018-12-31T16:16:24.323Z,10.03
2018-12-31T16:19:06.832Z,9.63
2018-12-31T16:21:56.653Z,9.90
2018-12-31T16:24:38.628Z,9.08
2018-12-31T16:27:28.755Z,8.98
2018-12-31T16:30:10.868Z,9.23
2018-12-31T16:33:00.740Z,8.95
2018-12-31T16:35:42.823Z,9.23
2018-12-31T16:38:32.575Z,8.78
2018-12-31T16:41:16.881Z,9.33
2018-12-31T16:44:06.812Z,9.20
2018-12-31T16:46:49.093Z,10.10
2018-12-31T16:49:31.772Z,9.05
2018-12-31T16:52:23.940Z,10.32
2018-12-31T16:55:06.759Z,11.38
2018-12-31T16:57:56.462Z,11.78
2018-12-31T17:00:39.399Z,10.20
2018-12-31T17:03:29.251Z,9.23
2018-12-31T17:06:12.257Z,9.35
2018-12-31T17:12:16.716Z,8.60
2018-12-31T17:15:06.412Z,9.38
2018-12-31T17:18:10.595Z,10.63
2018-12-31T17:20:40.811Z,9.78
2018-12-31T17:23:30.548Z,12.23
2018-12-31T17:26:12.488Z,11.05
2018-12-31T17:31:55.705Z,11.22
2018-12-31T17:35:05.985Z,11.05
2018-12-31T17:37:51.135Z,10.75
2018-12-31T17:40:43.002Z,11.63
2018-12-31T17:43:27.717Z,12.40
2018-12-31T17:46:17.944Z,11.78
2018-12-31T17:49:07.541Z,18.12
2018-12-31T17:51:55.780Z,12.80
2018-12-31T17:55:00.671Z,22.20
2018-12-31T17:57:43.181Z,15.25
2018-12-31T18:00:32.946Z,11.40
2018-12-31T18:03:22.677Z,10.80
2018-12-31T18:06:12.397Z,10.10
2018-12-31T18:08:57.309Z,7.90
2018-12-31T18:11:47.049Z,7.75
2018-12-31T18:14:29.441Z,8.33
2018-12-31T18:17:19.842Z,9.35
2018-12-31T18:20:02.680Z,9.65
2018-12-31T18:22:52.299Z,8.10
2018-12-31T18:25:35.176Z,7.70
2018-12-31T18:28:24.816Z,7.78
2018-12-31T18:31:06.686Z,7.83
2018-12-31T18:33:56.528Z,8.58
2018-12-31T18:36:39.082Z,7.80
2018-12-31T18:39:28.686Z,7.75
2018-12-31T18:42:14.010Z,8.20
2018-12-31T18:45:03.824Z,8.63
2018-12-31T18:47:46.029Z,8.75
2018-12-31T18:50:35.761Z,8.30
2018-12-31T18:53:18.457Z,8.10
2018-12-31T18:56:08.083Z,7.90
2018-12-31T18:58:50.847Z,7.12
2018-12-31T19:01:40.490Z,6.55
2018-12-31T19:04:22.417Z,7.40
2018-12-31T19:10:05.866Z,8.15
2018-12-31T19:12:55.731Z,7.83
2018-12-31T19:15:45.512Z,7.67
2018-12-31T19:18:30.161Z,7.33
2018-12-31T19:21:40.318Z,61.70
2018-12-31T19:24:22.615Z,12.88
2018-12-31T19:27:12.517Z,10.35
2018-12-31T19:29:55.065Z,10.18
2018-12-31T19:32:45.068Z,10.40
2018-12-31T19:35:27.866Z,21.35
2018-12-31T19:38:17.496Z,9.55
2018-12-31T19:40:59.697Z,20.88
2018-12-31T19:43:49.493Z,136.47
2018-12-31T19:46:31.734Z,23.23
2018-12-31T19:49:21.604Z,56.60
2018-12-31T19:52:03.722Z,28.30
2018-12-31T19:54:58.467Z,211.07
2018-12-31T19:57:39.430Z,116.33
2018-12-31T20:00:29.259Z,31.52
2018-12-31T20:03:11.875Z,8.28
2018-12-31T20:09:24.065Z,5.30
2018-12-31T20:12:06.490Z,5.53
2018-12-31T20:14:56.219Z,21.40
2018-12-31T20:17:39.114Z,32.67
2018-12-31T20:20:28.888Z,14.93
2018-12-31T20:23:11.115Z,11.30
2018-12-31T20:26:00.968Z,7.22
2018-12-31T20:28:43.742Z,5.70
2018-12-31T20:31:33.543Z,5.95
2018-12-31T20:34:23.326Z,6.13
2018-12-31T20:37:15.110Z,6.17
2018-12-31T20:39:57.972Z,6.95
2018-12-31T20:45:42.463Z,7.40
2018-12-31T20:48:32.263Z,6.00
2018-12-31T20:51:15.119Z,5.50
2018-12-31T20:54:04.868Z,5.22
2018-12-31T20:56:54.649Z,6.12
2018-12-31T20:59:37.316Z,4.37
2018-12-31T21:02:29.353Z,4.83
2018-12-31T21:05:19.239Z,4.10
2018-12-31T21:08:03.283Z,5.15
2018-12-31T21:11:04.419Z,4.95
2018-12-31T21:13:48.082Z,7.43
2018-12-31T21:16:32.856Z,6.70
2018-12-31T21:19:41.905Z,5.95
2018-12-31T21:25:41.827Z,7.05
2018-12-31T21:28:32.084Z,6.55
2018-12-31T21:31:14.115Z,6.30
2018-12-31T21:37:27.177Z,164.97
2018-12-31T21:40:19.915Z,58.55
2018-12-31T21:43:03.838Z,77.47
2018-12-31T21:45:54.793Z,52.48
2018-12-31T21:48:38.081Z,28.40
2018-12-31T21:51:47.308Z,36.85
2018-12-31T21:54:30.463Z,10.03
2018-12-31T21:57:21.985Z,8.13
2018-12-31T22:00:21.231Z,8.28
2018-12-31T22:03:03.604Z,8.40
2018-12-31T22:06:12.953Z,7.83
2018-12-31T22:09:03.040Z,7.40
2018-12-31T22:11:45.620Z,8.80
2018-12-31T22:14:35.306Z,8.25
2018-12-31T22:17:17.579Z,8.03
2018-12-31T22:20:09.154Z,7.97
2018-12-31T22:22:51.778Z,8.15
2018-12-31T22:29:06.474Z,9.28
2018-12-31T22:31:56.720Z,8.50
2018-12-31T22:34:39.044Z,7.85
2018-12-31T22:40:43.428Z,8.55
2018-12-31T22:43:33.136Z,8.08
2018-12-31T22:46:15.457Z,7.90
2018-12-31T22:49:05.426Z,7.50
2018-12-31T22:51:48.194Z,7.35
2018-12-31T22:54:38.086Z,7.87
2018-12-31T22:57:28.049Z,7.87
2018-12-31T23:00:17.806Z,7.42
2018-12-31T23:03:07.764Z,8.08
2018-12-31T23:05:50.713Z,211.37
2018-12-31T23:08:41.790Z,711.88
2018-12-31T23:11:25.413Z,344.98
2018-12-31T23:14:09.382Z,720.33
2018-12-31T23:17:32.129Z,238.20
2018-12-31T23:20:16.473Z,117.40
2018-12-31T23:26:20.734Z,93.80
2018-12-31T23:29:10.322Z,62.73
2018-12-31T23:31:53.005Z,102.07
2018-12-31T23:34:42.934Z,113.22
2018-12-31T23:37:25.509Z,188.75
2018-12-31T23:40:15.302Z,239.02
2018-12-31T23:43:23.999Z,101.55
2018-12-31T23:46:06.619Z,79.00
2018-12-31T23:52:10.800Z,74.30
2018-12-31T23:55:11.281Z,164.70
2018-12-31T23:57:53.176Z,197.02
